sensor_id;sensor_type;location;lat;lon;timestamp;temperature;humidity
9668;DHT22;4872;48.316;10.650;2023-05-10T04:05:59;12.70;99.90
9668;DHT22;4872;48.316;10.650;2023-05-10T04:08:27;12.60;99.90
9668;DHT22;4872;48.316;10.650;2023-05-10T04:10:53;13.00;99.90
9668;DHT22;4872;48.316;10.650;2023-05-10T04:13:20;12.50;99.90
9668;DHT22;4872;48.316;10.650;2023-05-10T04:15:47;12.50;99.90
9668;DHT22;4872;48.316;10.650;2023-05-10T04:18:14;12.40;99.90
9668;DHT22;4872;48.316;10.650;2023-05-10T04:20:42;12.30;99.90
9668;DHT22;4872;48.316;10.650;2023-05-10T04:23:10;12.10;99.90
9668;DHT22;4872;48.316;10.650;2023-05-10T04:25:37;13.30;99.90
9668;DHT22;4872;48.316;10.650;2023-05-10T04:28:05;12.00;99.90
9668;DHT22;4872;48.316;10.650;2023-05-10T04:30:34;12.40;99.90
9668;DHT22;4872;48.316;10.650;2023-05-10T04:33:01;12.00;99.90
9668;DHT22;4872;48.316;10.650;2023-05-10T04:35:28;13.50;99.90
9668;DHT22;4872;48.316;10.650;2023-05-10T04:37:54;12.10;99.90
9668;DHT22;4872;48.316;10.650;2023-05-10T04:40:23;12.00;99.90
9668;DHT22;4872;48.316;10.650;2023-05-10T04:42:49;12.00;99.90
9668;DHT22;4872;48.316;10.650;2023-05-10T04:45:17;11.80;99.90
9668;DHT22;4872;48.316;10.650;2023-05-10T04:47:43;11.90;99.90
9668;DHT22;4872;48.316;10.650;2023-05-10T04:50:10;11.90;99.90
9668;DHT22;4872;48.316;10.650;2023-05-10T04:52:37;11.90;99.90
9668;DHT22;4872;48.316;10.650;2023-05-10T04:55:04;12.00;99.90
9668;DHT22;4872;48.316;10.650;2023-05-10T04:57:34;11.90;99.90
9668;DHT22;4872;48.316;10.650;2023-05-10T05:00:01;12.00;99.90
9668;DHT22;4872;48.316;10.650;2023-05-10T05:02:28;12.00;99.90
9668;DHT22;4872;48.316;10.650;2023-05-10T05:04:56;12.10;99.90
9668;DHT22;4872;48.316;10.650;2023-05-10T05:07:24;12.10;99.90
9668;DHT22;4872;48.316;10.650;2023-05-10T05:09:50;12.30;99.90
9668;DHT22;4872;48.316;10.650;2023-05-10T05:12:17;12.40;99.90
9668;DHT22;4872;48.316;10.650;2023-05-10T05:14:46;12.60;99.90
9668;DHT22;4872;48.316;10.650;2023-05-10T05:17:13;12.60;99.90
9668;DHT22;4872;48.316;10.650;2023-05-10T05:19:40;12.80;99.90
9668;DHT22;4872;48.316;10.650;2023-05-10T05:22:06;12.60;99.90
9668;DHT22;4872;48.316;10.650;2023-05-10T05:24:35;12.70;99.90
9668;DHT22;4872;48.316;10.650;2023-05-10T05:27:03;12.80;99.90
9668;DHT22;4872;48.316;10.650;2023-05-10T05:29:29;12.70;99.90
9668;DHT22;4872;48.316;10.650;2023-05-10T05:31:58;12.70;99.90
9668;DHT22;4872;48.316;10.650;2023-05-10T05:34:24;12.80;99.90
9668;DHT22;4872;48.316;10.650;2023-05-10T05:36:52;12.80;99.90
9668;DHT22;4872;48.316;10.650;2023-05-10T05:39:19;12.90;99.90
9668;DHT22;4872;48.316;10.650;2023-05-10T05:41:46;12.90;99.90
9668;DHT22;4872;48.316;10.650;2023-05-10T05:44:12;12.90;99.90
9668;DHT22;4872;48.316;10.650;2023-05-10T05:46:39;12.90;99.90
9668;DHT22;4872;48.316;10.650;2023-05-10T05:49:07;13.00;99.90
9668;DHT22;4872;48.316;10.650;2023-05-10T05:51:34;13.00;99.90
9668;DHT22;4872;48.316;10.650;2023-05-10T05:54:01;13.10;99.90
9668;DHT22;4872;48.316;10.650;2023-05-10T05:56:29;13.10;99.90
9668;DHT22;4872;48.316;10.650;2023-05-10T05:58:56;13.30;99.90
9668;DHT22;4872;48.316;10.650;2023-05-10T06:01:23;14.00;99.90
9668;DHT22;4872;48.316;10.650;2023-05-10T06:03:49;13.30;99.90
9668;DHT22;4872;48.316;10.650;2023-05-10T06:06:18;13.20;99.90
9668;DHT22;4872;48.316;10.650;2023-05-10T06:08:44;13.30;99.90
9668;DHT22;4872;48.316;10.650;2023-05-10T06:11:11;13.30;99.90
9668;DHT22;4872;48.316;10.650;2023-05-10T06:13:38;13.30;99.90
9668;DHT22;4872;48.316;10.650;2023-05-10T06:16:05;13.30;99.90
9668;DHT22;4872;48.316;10.650;2023-05-10T06:18:32;13.30;99.90
9668;DHT22;4872;48.316;10.650;2023-05-10T06:20:59;13.30;99.90
9668;DHT22;4872;48.316;10.650;2023-05-10T06:23:27;13.30;99.90
9668;DHT22;4872;48.316;10.650;2023-05-10T06:25:54;13.30;99.90
9668;DHT22;4872;48.316;10.650;2023-05-10T06:28:21;13.30;99.90
9668;DHT22;4872;48.316;10.650;2023-05-10T06:30:47;13.30;99.90
9668;DHT22;4872;48.316;10.650;2023-05-10T06:33:14;13.40;99.90
9668;DHT22;4872;48.316;10.650;2023-05-10T06:35:41;13.40;99.90
9668;DHT22;4872;48.316;10.650;2023-05-10T06:38:08;13.40;99.90
9668;DHT22;4872;48.316;10.650;2023-05-10T06:40:36;13.40;99.90
9668;DHT22;4872;48.316;10.650;2023-05-10T06:43:03;13.50;99.90
9668;DHT22;4872;48.316;10.650;2023-05-10T06:45:30;13.50;99.90
9668;DHT22;4872;48.316;10.650;2023-05-10T06:47:56;14.00;99.90
9668;DHT22;4872;48.316;10.650;2023-05-10T06:50:23;13.50;99.90
9668;DHT22;4872;48.316;10.650;2023-05-10T06:52:50;13.70;99.90
9668;DHT22;4872;48.316;10.650;2023-05-10T06:55:17;13.90;99.90
9668;DHT22;4872;48.316;10.650;2023-05-10T06:57:45;13.80;99.90
9668;DHT22;4872;48.316;10.650;2023-05-10T07:00:13;13.90;99.90
9668;DHT22;4872;48.316;10.650;2023-05-10T07:02:40;13.80;99.90
9668;DHT22;4872;48.316;10.650;2023-05-10T07:05:07;13.90;99.90
9668;DHT22;4872;48.316;10.650;2023-05-10T07:07:34;14.00;99.90
9668;DHT22;4872;48.316;10.650;2023-05-10T07:10:01;13.90;99.90
9668;DHT22;4872;48.316;10.650;2023-05-10T07:12:28;13.90;99.90
9668;DHT22;4872;48.316;10.650;2023-05-10T07:14:56;14.00;99.90
9668;DHT22;4872;48.316;10.650;2023-05-10T07:17:23;14.00;99.90
9668;DHT22;4872;48.316;10.650;2023-05-10T07:19:50;14.00;99.90
9668;DHT22;4872;48.316;10.650;2023-05-10T07:22:16;13.80;99.90
9668;DHT22;4872;48.316;10.650;2023-05-10T07:24:43;13.80;99.90
9668;DHT22;4872;48.316;10.650;2023-05-10T07:27:10;13.90;99.90
9668;DHT22;4872;48.316;10.650;2023-05-10T07:29:38;14.00;99.90
9668;DHT22;4872;48.316;10.650;2023-05-10T07:32:06;14.00;99.90
9668;DHT22;4872;48.316;10.650;2023-05-10T07:34:33;14.10;99.90
9668;DHT22;4872;48.316;10.650;2023-05-10T07:37:00;13.90;99.90
9668;DHT22;4872;48.316;10.650;2023-05-10T07:39:27;13.70;99.90
9668;DHT22;4872;48.316;10.650;2023-05-10T07:41:54;13.80;99.90
9668;DHT22;4872;48.316;10.650;2023-05-10T07:44:21;13.80;99.90
9668;DHT22;4872;48.316;10.650;2023-05-10T07:46:48;14.00;99.90
9668;DHT22;4872;48.316;10.650;2023-05-10T07:49:16;13.90;99.90
9668;DHT22;4872;48.316;10.650;2023-05-10T07:51:43;13.80;99.90
9668;DHT22;4872;48.316;10.650;2023-05-10T07:54:14;13.60;99.90
9668;DHT22;4872;48.316;10.650;2023-05-10T07:56:40;13.70;99.90
9668;DHT22;4872;48.316;10.650;2023-05-10T07:59:15;14.10;99.90
9668;DHT22;4872;48.316;10.650;2023-05-10T08:01:42;13.70;99.90
9668;DHT22;4872;48.316;10.650;2023-05-10T08:04:09;13.80;99.90
9668;DHT22;4872;48.316;10.650;2023-05-10T08:06:37;14.00;99.90
9668;DHT22;4872;48.316;10.650;2023-05-10T08:09:04;14.00;99.90
9668;DHT22;4872;48.316;10.650;2023-05-10T08:11:30;14.10;99.90
9668;DHT22;4872;48.316;10.650;2023-05-10T08:13:57;14.00;99.90
9668;DHT22;4872;48.316;10.650;2023-05-10T08:16:24;14.10;99.90
9668;DHT22;4872;48.316;10.650;2023-05-10T08:18:50;14.70;99.90
9668;DHT22;4872;48.316;10.650;2023-05-10T08:21:17;14.90;99.90
9668;DHT22;4872;48.316;10.650;2023-05-10T08:23:45;14.10;99.90
9668;DHT22;4872;48.316;10.650;2023-05-10T08:26:12;14.20;99.90
9668;DHT22;4872;48.316;10.650;2023-05-10T08:28:39;14.20;99.90
9668;DHT22;4872;48.316;10.650;2023-05-10T08:31:05;14.40;99.90
9668;DHT22;4872;48.316;10.650;2023-05-10T08:33:32;14.40;99.90
9668;DHT22;4872;48.316;10.650;2023-05-10T08:35:59;14.40;99.90
9668;DHT22;4872;48.316;10.650;2023-05-10T08:38:26;14.50;99.90
9668;DHT22;4872;48.316;10.650;2023-05-10T08:40:55;14.60;99.90
9668;DHT22;4872;48.316;10.650;2023-05-10T08:43:27;16.00;99.90
9668;DHT22;4872;48.316;10.650;2023-05-10T08:45:55;14.90;99.90
9668;DHT22;4872;48.316;10.650;2023-05-10T08:48:23;16.10;99.90
9668;DHT22;4872;48.316;10.650;2023-05-10T08:50:53;15.10;99.90
9668;DHT22;4872;48.316;10.650;2023-05-10T08:53:21;14.80;99.90
9668;DHT22;4872;48.316;10.650;2023-05-10T08:55:50;14.80;99.90
9668;DHT22;4872;48.316;10.650;2023-05-10T08:58:19;14.80;99.90
9668;DHT22;4872;48.316;10.650;2023-05-10T09:00:48;14.90;99.90
9668;DHT22;4872;48.316;10.650;2023-05-10T09:03:15;14.90;99.90
9668;DHT22;4872;48.316;10.650;2023-05-10T09:05:42;14.80;99.90
9668;DHT22;4872;48.316;10.650;2023-05-10T09:08:10;14.90;99.90
9668;DHT22;4872;48.316;10.650;2023-05-10T09:10:38;15.00;99.90
9668;DHT22;4872;48.316;10.650;2023-05-10T09:13:07;15.20;99.90
9668;DHT22;4872;48.316;10.650;2023-05-10T09:15:37;15.10;99.90
9668;DHT22;4872;48.316;10.650;2023-05-10T09:18:04;15.00;99.90
9668;DHT22;4872;48.316;10.650;2023-05-10T09:20:31;15.00;99.90
9668;DHT22;4872;48.316;10.650;2023-05-10T09:22:58;14.80;99.90
9668;DHT22;4872;48.316;10.650;2023-05-10T09:25:24;14.70;99.90
9668;DHT22;4872;48.316;10.650;2023-05-10T09:27:52;14.70;99.90
9668;DHT22;4872;48.316;10.650;2023-05-10T09:30:25;14.90;99.90
9668;DHT22;4872;48.316;10.650;2023-05-10T09:32:54;14.80;99.90
9668;DHT22;4872;48.316;10.650;2023-05-10T09:35:23;15.40;99.90
9668;DHT22;4872;48.316;10.650;2023-05-10T09:37:51;15.40;99.90
9668;DHT22;4872;48.316;10.650;2023-05-10T09:40:20;14.60;99.90
9668;DHT22;4872;48.316;10.650;2023-05-10T09:42:52;14.60;99.90
9668;DHT22;4872;48.316;10.650;2023-05-10T09:45:20;14.70;99.90
9668;DHT22;4872;48.316;10.650;2023-05-10T09:47:47;14.50;99.90
9668;DHT22;4872;48.316;10.650;2023-05-10T09:50:15;14.60;99.90
9668;DHT22;4872;48.316;10.650;2023-05-10T09:52:50;14.60;99.90
9668;DHT22;4872;48.316;10.650;2023-05-10T09:55:19;14.80;99.90
9668;DHT22;4872;48.316;10.650;2023-05-10T09:57:46;14.80;99.90
9668;DHT22;4872;48.316;10.650;2023-05-10T10:00:19;15.40;99.90
9668;DHT22;4872;48.316;10.650;2023-05-10T10:02:47;15.70;99.90
9668;DHT22;4872;48.316;10.650;2023-05-10T10:05:16;15.20;99.90
9668;DHT22;4872;48.316;10.650;2023-05-10T10:07:43;15.40;99.90
9668;DHT22;4872;48.316;10.650;2023-05-10T10:10:10;15.30;99.90
9668;DHT22;4872;48.316;10.650;2023-05-10T10:12:41;15.20;99.90
9668;DHT22;4872;48.316;10.650;2023-05-10T10:15:08;15.70;99.90
9668;DHT22;4872;48.316;10.650;2023-05-10T10:17:37;15.30;99.90
9668;DHT22;4872;48.316;10.650;2023-05-10T10:20:05;15.10;99.90
9668;DHT22;4872;48.316;10.650;2023-05-10T10:22:34;15.10;99.90
9668;DHT22;4872;48.316;10.650;2023-05-10T10:25:02;15.00;99.90
9668;DHT22;4872;48.316;10.650;2023-05-10T10:27:36;14.90;99.90
9668;DHT22;4872;48.316;10.650;2023-05-10T10:30:13;15.20;99.90
9668;DHT22;4872;48.316;10.650;2023-05-10T10:33:06;15.20;99.90
9668;DHT22;4872;48.316;10.650;2023-05-10T10:35:40;15.10;99.90
9668;DHT22;4872;48.316;10.650;2023-05-10T10:38:09;15.20;99.90
9668;DHT22;4872;48.316;10.650;2023-05-10T10:40:36;15.20;99.90
9668;DHT22;4872;48.316;10.650;2023-05-10T10:43:23;15.40;99.90
9668;DHT22;4872;48.316;10.650;2023-05-10T10:46:10;15.50;99.90
9668;DHT22;4872;48.316;10.650;2023-05-10T10:48:38;15.50;99.90
9668;DHT22;4872;48.316;10.650;2023-05-10T10:51:05;15.70;99.90
9668;DHT22;4872;48.316;10.650;2023-05-10T10:53:33;15.50;99.90
9668;DHT22;4872;48.316;10.650;2023-05-10T10:56:06;15.70;99.90
9668;DHT22;4872;48.316;10.650;2023-05-10T10:58:35;15.50;99.90
9668;DHT22;4872;48.316;10.650;2023-05-10T11:01:12;16.30;99.90
9668;DHT22;4872;48.316;10.650;2023-05-10T11:03:40;15.60;99.90
9668;DHT22;4872;48.316;10.650;2023-05-10T11:06:06;15.70;99.90
9668;DHT22;4872;48.316;10.650;2023-05-10T11:08:42;16.20;99.90
9668;DHT22;4872;48.316;10.650;2023-05-10T11:11:14;15.70;99.90
9668;DHT22;4872;48.316;10.650;2023-05-10T11:13:42;15.60;99.90
9668;DHT22;4872;48.316;10.650;2023-05-10T11:16:11;15.70;99.90
9668;DHT22;4872;48.316;10.650;2023-05-10T11:18:39;15.90;99.90
9668;DHT22;4872;48.316;10.650;2023-05-10T11:21:08;15.80;99.90
9668;DHT22;4872;48.316;10.650;2023-05-10T11:23:49;16.00;99.90
9668;DHT22;4872;48.316;10.650;2023-05-10T11:26:17;15.60;99.90
9668;DHT22;4872;48.316;10.650;2023-05-10T11:28:44;16.00;99.90
9668;DHT22;4872;48.316;10.650;2023-05-10T11:31:13;15.40;99.90
9668;DHT22;4872;48.316;10.650;2023-05-10T11:33:43;15.30;99.90
9668;DHT22;4872;48.316;10.650;2023-05-10T11:36:11;15.50;99.90
9668;DHT22;4872;48.316;10.650;2023-05-10T11:38:38;15.40;99.90
9668;DHT22;4872;48.316;10.650;2023-05-10T11:41:08;15.40;99.90
9668;DHT22;4872;48.316;10.650;2023-05-10T11:43:34;15.40;99.90
9668;DHT22;4872;48.316;10.650;2023-05-10T11:46:04;15.80;99.90
9668;DHT22;4872;48.316;10.650;2023-05-10T11:48:31;15.10;99.90
9668;DHT22;4872;48.316;10.650;2023-05-10T11:50:57;15.70;99.90
9668;DHT22;4872;48.316;10.650;2023-05-10T11:53:26;15.00;99.90
9668;DHT22;4872;48.316;10.650;2023-05-10T11:55:52;15.10;99.60
9668;DHT22;4872;48.316;10.650;2023-05-10T11:58:20;15.10;99.80
9668;DHT22;4872;48.316;10.650;2023-05-10T12:00:48;15.10;99.70
9668;DHT22;4872;48.316;10.650;2023-05-10T12:03:16;15.10;99.90
9668;DHT22;4872;48.316;10.650;2023-05-10T12:05:43;15.20;99.80
9668;DHT22;4872;48.316;10.650;2023-05-10T12:08:11;15.20;99.40
9668;DHT22;4872;48.316;10.650;2023-05-10T12:10:38;15.70;99.90
9668;DHT22;4872;48.316;10.650;2023-05-10T12:13:05;15.20;98.50
9668;DHT22;4872;48.316;10.650;2023-05-10T12:15:33;15.30;99.10
9668;DHT22;4872;48.316;10.650;2023-05-10T12:18:00;15.30;98.90
9668;DHT22;4872;48.316;10.650;2023-05-10T12:20:28;15.30;98.50
9668;DHT22;4872;48.316;10.650;2023-05-10T12:22:57;15.30;99.20
9668;DHT22;4872;48.316;10.650;2023-05-10T12:25:29;15.40;99.30
9668;DHT22;4872;48.316;10.650;2023-05-10T12:27:57;15.50;99.20
9668;DHT22;4872;48.316;10.650;2023-05-10T12:30:27;15.40;97.90
9668;DHT22;4872;48.316;10.650;2023-05-10T12:33:00;15.40;97.70
9668;DHT22;4872;48.316;10.650;2023-05-10T12:35:30;15.30;97.90
9668;DHT22;4872;48.316;10.650;2023-05-10T12:37:56;15.30;97.80
9668;DHT22;4872;48.316;10.650;2023-05-10T12:40:23;15.30;98.00
9668;DHT22;4872;48.316;10.650;2023-05-10T12:42:50;16.20;98.00
9668;DHT22;4872;48.316;10.650;2023-05-10T12:45:17;15.30;97.70
9668;DHT22;4872;48.316;10.650;2023-05-10T12:47:44;15.40;97.20
9668;DHT22;4872;48.316;10.650;2023-05-10T12:50:12;15.40;97.30
9668;DHT22;4872;48.316;10.650;2023-05-10T12:52:39;15.50;97.80
9668;DHT22;4872;48.316;10.650;2023-05-10T12:55:06;16.20;97.60
9668;DHT22;4872;48.316;10.650;2023-05-10T12:57:33;15.40;97.40
9668;DHT22;4872;48.316;10.650;2023-05-10T13:00:00;15.40;97.90
9668;DHT22;4872;48.316;10.650;2023-05-10T13:02:27;15.50;99.10
9668;DHT22;4872;48.316;10.650;2023-05-10T13:04:53;15.60;99.80
9668;DHT22;4872;48.316;10.650;2023-05-10T13:07:21;15.30;99.90
9668;DHT22;4872;48.316;10.650;2023-05-10T13:09:48;16.30;99.90
9668;DHT22;4872;48.316;10.650;2023-05-10T13:12:15;14.80;99.90
9668;DHT22;4872;48.316;10.650;2023-05-10T13:14:42;15.50;99.90
9668;DHT22;4872;48.316;10.650;2023-05-10T13:17:09;14.50;99.90
9668;DHT22;4872;48.316;10.650;2023-05-10T13:19:35;15.30;99.90
9668;DHT22;4872;48.316;10.650;2023-05-10T13:22:02;14.20;99.90
9668;DHT22;4872;48.316;10.650;2023-05-10T13:24:30;14.20;99.90
9668;DHT22;4872;48.316;10.650;2023-05-10T13:26:58;14.00;99.90
9668;DHT22;4872;48.316;10.650;2023-05-10T13:29:24;14.60;99.90
9668;DHT22;4872;48.316;10.650;2023-05-10T13:31:51;14.20;99.90
9668;DHT22;4872;48.316;10.650;2023-05-10T13:34:18;14.80;99.90
9668;DHT22;4872;48.316;10.650;2023-05-10T13:36:47;14.50;99.90
9668;DHT22;4872;48.316;10.650;2023-05-10T13:39:14;13.50;99.90
9668;DHT22;4872;48.316;10.650;2023-05-10T13:41:42;13.20;99.90
9668;DHT22;4872;48.316;10.650;2023-05-10T13:44:09;13.00;99.90
9668;DHT22;4872;48.316;10.650;2023-05-10T13:46:36;12.80;99.90
9668;DHT22;4872;48.316;10.650;2023-05-10T13:49:03;12.70;99.90
9668;DHT22;4872;48.316;10.650;2023-05-10T13:51:30;12.70;99.90
9668;DHT22;4872;48.316;10.650;2023-05-10T13:53:58;13.00;99.90
9668;DHT22;4872;48.316;10.650;2023-05-10T13:56:24;12.60;99.90
9668;DHT22;4872;48.316;10.650;2023-05-10T13:58:52;12.60;99.90
9668;DHT22;4872;48.316;10.650;2023-05-10T14:01:19;12.70;99.90
9668;DHT22;4872;48.316;10.650;2023-05-10T14:03:46;12.70;99.90
9668;DHT22;4872;48.316;10.650;2023-05-10T14:06:13;12.50;99.90
9668;DHT22;4872;48.316;10.650;2023-05-10T14:08:40;12.50;99.90
9668;DHT22;4872;48.316;10.650;2023-05-10T14:11:07;12.40;99.90
9668;DHT22;4872;48.316;10.650;2023-05-10T14:13:33;12.40;99.90
9668;DHT22;4872;48.316;10.650;2023-05-10T14:16:02;12.30;99.90
9668;DHT22;4872;48.316;10.650;2023-05-10T14:18:29;12.30;99.90
9668;DHT22;4872;48.316;10.650;2023-05-10T14:20:56;12.20;99.90
9668;DHT22;4872;48.316;10.650;2023-05-10T14:23:22;12.60;99.90
9668;DHT22;4872;48.316;10.650;2023-05-10T14:25:50;13.40;99.90
9668;DHT22;4872;48.316;10.650;2023-05-10T14:28:17;12.30;99.90
9668;DHT22;4872;48.316;10.650;2023-05-10T14:30:45;12.40;99.90
9668;DHT22;4872;48.316;10.650;2023-05-10T14:33:13;12.40;99.90
9668;DHT22;4872;48.316;10.650;2023-05-10T14:35:40;12.60;99.90
9668;DHT22;4872;48.316;10.650;2023-05-10T14:38:07;12.70;99.90
9668;DHT22;4872;48.316;10.650;2023-05-10T14:40:34;12.80;99.90
9668;DHT22;4872;48.316;10.650;2023-05-10T14:43:01;12.80;99.90
9668;DHT22;4872;48.316;10.650;2023-05-10T14:45:28;12.80;99.90
9668;DHT22;4872;48.316;10.650;2023-05-10T14:47:54;12.50;99.90
9668;DHT22;4872;48.316;10.650;2023-05-10T14:50:23;12.40;99.90
9668;DHT22;4872;48.316;10.650;2023-05-10T14:52:50;13.60;99.90
9668;DHT22;4872;48.316;10.650;2023-05-10T14:55:16;13.30;99.90
9668;DHT22;4872;48.316;10.650;2023-05-10T14:57:43;12.00;99.90
9668;DHT22;4872;48.316;10.650;2023-05-10T15:00:13;11.70;99.90
9668;DHT22;4872;48.316;10.650;2023-05-10T15:02:41;11.60;99.90
9668;DHT22;4872;48.316;10.650;2023-05-10T15:05:08;12.00;99.90
9668;DHT22;4872;48.316;10.650;2023-05-10T15:07:36;11.60;99.90
9668;DHT22;4872;48.316;10.650;2023-05-10T15:10:04;11.50;99.90
9668;DHT22;4872;48.316;10.650;2023-05-10T15:12:31;11.60;99.90
9668;DHT22;4872;48.316;10.650;2023-05-10T15:14:58;11.50;99.90
9668;DHT22;4872;48.316;10.650;2023-05-10T15:17:24;11.50;99.90
9668;DHT22;4872;48.316;10.650;2023-05-10T15:19:51;11.50;99.90
9668;DHT22;4872;48.316;10.650;2023-05-10T15:22:18;11.70;99.90
9668;DHT22;4872;48.316;10.650;2023-05-10T15:24:46;11.60;99.90
9668;DHT22;4872;48.316;10.650;2023-05-10T15:27:13;11.70;99.90
9668;DHT22;4872;48.316;10.650;2023-05-10T15:29:40;11.60;99.90
9668;DHT22;4872;48.316;10.650;2023-05-10T15:32:07;11.70;99.90
9668;DHT22;4872;48.316;10.650;2023-05-10T15:34:33;11.80;99.90
9668;DHT22;4872;48.316;10.650;2023-05-10T15:37:01;13.40;99.90
9668;DHT22;4872;48.316;10.650;2023-05-10T15:39:28;11.90;99.90
9668;DHT22;4872;48.316;10.650;2023-05-10T15:41:56;11.70;99.90
9668;DHT22;4872;48.316;10.650;2023-05-10T15:44:23;12.50;99.90
9668;DHT22;4872;48.316;10.650;2023-05-10T15:46:50;11.60;99.90
9668;DHT22;4872;48.316;10.650;2023-05-10T15:49:17;11.80;99.90
9668;DHT22;4872;48.316;10.650;2023-05-10T15:51:43;11.70;99.90
9668;DHT22;4872;48.316;10.650;2023-05-10T15:54:10;11.50;99.90
9668;DHT22;4872;48.316;10.650;2023-05-10T15:56:37;11.60;99.90
9668;DHT22;4872;48.316;10.650;2023-05-10T15:59:06;11.70;99.90
9668;DHT22;4872;48.316;10.650;2023-05-10T16:01:35;11.80;99.90
9668;DHT22;4872;48.316;10.650;2023-05-10T16:04:02;11.90;99.90
9668;DHT22;4872;48.316;10.650;2023-05-10T16:06:29;12.90;99.90
9668;DHT22;4872;48.316;10.650;2023-05-10T16:08:56;11.90;99.90
9668;DHT22;4872;48.316;10.650;2023-05-10T16:11:22;12.00;99.90
9668;DHT22;4872;48.316;10.650;2023-05-10T16:13:49;12.90;99.90
9668;DHT22;4872;48.316;10.650;2023-05-10T16:16:18;12.00;99.90
9668;DHT22;4872;48.316;10.650;2023-05-10T16:18:45;11.90;99.90
9668;DHT22;4872;48.316;10.650;2023-05-10T16:21:12;12.00;99.90
9668;DHT22;4872;48.316;10.650;2023-05-10T16:23:38;11.90;99.90
9668;DHT22;4872;48.316;10.650;2023-05-10T16:26:05;11.90;99.90
9668;DHT22;4872;48.316;10.650;2023-05-10T16:28:33;12.00;99.90
9668;DHT22;4872;48.316;10.650;2023-05-10T16:31:00;12.00;99.90
9668;DHT22;4872;48.316;10.650;2023-05-10T16:33:28;12.00;99.90
9668;DHT22;4872;48.316;10.650;2023-05-10T16:35:54;12.10;99.90
9668;DHT22;4872;48.316;10.650;2023-05-10T16:38:21;12.10;99.90
9668;DHT22;4872;48.316;10.650;2023-05-10T16:40:48;12.20;99.90
9668;DHT22;4872;48.316;10.650;2023-05-10T16:43:15;13.60;99.90
9668;DHT22;4872;48.316;10.650;2023-05-10T16:45:42;12.20;99.90
9668;DHT22;4872;48.316;10.650;2023-05-10T16:48:09;12.20;99.90
9668;DHT22;4872;48.316;10.650;2023-05-10T16:50:37;12.20;99.90
9668;DHT22;4872;48.316;10.650;2023-05-10T16:53:04;13.30;99.90
9668;DHT22;4872;48.316;10.650;2023-05-10T16:55:31;12.30;99.90
9668;DHT22;4872;48.316;10.650;2023-05-10T16:57:57;13.50;99.90
9668;DHT22;4872;48.316;10.650;2023-05-10T17:00:25;12.40;99.90
9668;DHT22;4872;48.316;10.650;2023-05-10T17:02:52;13.50;99.90
9668;DHT22;4872;48.316;10.650;2023-05-10T17:05:18;12.60;99.90
9668;DHT22;4872;48.316;10.650;2023-05-10T17:07:47;13.10;99.90
9668;DHT22;4872;48.316;10.650;2023-05-10T17:10:13;12.50;99.90
9668;DHT22;4872;48.316;10.650;2023-05-10T17:12:40;12.50;99.90
9668;DHT22;4872;48.316;10.650;2023-05-10T17:15:08;12.50;99.90
9668;DHT22;4872;48.316;10.650;2023-05-10T17:17:35;12.40;99.90
9668;DHT22;4872;48.316;10.650;2023-05-10T17:20:02;12.50;99.90
9668;DHT22;4872;48.316;10.650;2023-05-10T17:22:29;12.50;99.90
9668;DHT22;4872;48.316;10.650;2023-05-10T17:24:57;12.50;99.90
9668;DHT22;4872;48.316;10.650;2023-05-10T17:27:24;12.90;99.90
9668;DHT22;4872;48.316;10.650;2023-05-10T17:29:55;12.60;99.90
9668;DHT22;4872;48.316;10.650;2023-05-10T17:32:22;12.50;99.90
9668;DHT22;4872;48.316;10.650;2023-05-10T17:34:48;12.40;99.90
9668;DHT22;4872;48.316;10.650;2023-05-10T17:37:16;12.70;99.90
9668;DHT22;4872;48.316;10.650;2023-05-10T17:39:42;12.40;99.90
9668;DHT22;4872;48.316;10.650;2023-05-10T17:42:10;12.40;99.90
9668;DHT22;4872;48.316;10.650;2023-05-10T17:44:39;12.40;99.90
9668;DHT22;4872;48.316;10.650;2023-05-10T17:47:06;12.40;99.90
9668;DHT22;4872;48.316;10.650;2023-05-10T17:49:32;12.40;99.90
9668;DHT22;4872;48.316;10.650;2023-05-10T17:51:59;12.30;99.90
9668;DHT22;4872;48.316;10.650;2023-05-10T17:54:26;12.30;99.90
9668;DHT22;4872;48.316;10.650;2023-05-10T17:56:53;12.30;99.90
9668;DHT22;4872;48.316;10.650;2023-05-10T17:59:21;12.10;99.90
9668;DHT22;4872;48.316;10.650;2023-05-10T18:01:48;12.20;99.90
9668;DHT22;4872;48.316;10.650;2023-05-10T18:04:15;12.10;99.90
9668;DHT22;4872;48.316;10.650;2023-05-10T18:06:41;12.10;99.90
9668;DHT22;4872;48.316;10.650;2023-05-10T18:09:08;12.40;99.90
9668;DHT22;4872;48.316;10.650;2023-05-10T18:11:35;11.90;99.90
9668;DHT22;4872;48.316;10.650;2023-05-10T18:14:03;12.00;99.90
9668;DHT22;4872;48.316;10.650;2023-05-10T18:16:31;11.90;99.90
9668;DHT22;4872;48.316;10.650;2023-05-10T18:18:58;11.80;99.90
9668;DHT22;4872;48.316;10.650;2023-05-10T18:21:24;11.80;99.90
9668;DHT22;4872;48.316;10.650;2023-05-10T18:23:51;12.10;99.90
9668;DHT22;4872;48.316;10.650;2023-05-10T18:26:18;11.70;99.90
9668;DHT22;4872;48.316;10.650;2023-05-10T18:28:45;11.70;99.90
9668;DHT22;4872;48.316;10.650;2023-05-10T18:31:11;11.70;99.90
9668;DHT22;4872;48.316;10.650;2023-05-10T18:33:39;11.60;99.90
9668;DHT22;4872;48.316;10.650;2023-05-10T18:36:06;11.70;99.90
9668;DHT22;4872;48.316;10.650;2023-05-10T18:38:33;11.70;99.90
9668;DHT22;4872;48.316;10.650;2023-05-10T18:41:00;11.70;99.90
9668;DHT22;4872;48.316;10.650;2023-05-10T18:43:27;12.10;99.90
9668;DHT22;4872;48.316;10.650;2023-05-10T18:45:54;11.80;99.90
9668;DHT22;4872;48.316;10.650;2023-05-10T18:48:20;11.80;99.90
9668;DHT22;4872;48.316;10.650;2023-05-10T18:50:49;11.50;99.90
9668;DHT22;4872;48.316;10.650;2023-05-10T18:53:15;12.00;99.90
9668;DHT22;4872;48.316;10.650;2023-05-10T18:55:42;11.50;99.90
9668;DHT22;4872;48.316;10.650;2023-05-10T18:58:09;12.70;99.90
9668;DHT22;4872;48.316;10.650;2023-05-10T19:00:36;11.50;99.90
9668;DHT22;4872;48.316;10.650;2023-05-10T19:03:02;12.10;99.90
9668;DHT22;4872;48.316;10.650;2023-05-10T19:05:29;11.60;99.90
9668;DHT22;4872;48.316;10.650;2023-05-10T19:07:57;11.60;99.90
9668;DHT22;4872;48.316;10.650;2023-05-10T19:10:24;11.70;99.90
9668;DHT22;4872;48.316;10.650;2023-05-10T19:12:51;11.70;99.90
9668;DHT22;4872;48.316;10.650;2023-05-10T19:15:18;11.50;99.90
9668;DHT22;4872;48.316;10.650;2023-05-10T19:17:44;11.50;99.90
9668;DHT22;4872;48.316;10.650;2023-05-10T19:20:11;11.90;99.90
9668;DHT22;4872;48.316;10.650;2023-05-10T19:22:38;11.60;99.90
9668;DHT22;4872;48.316;10.650;2023-05-10T19:25:07;11.60;99.90
9668;DHT22;4872;48.316;10.650;2023-05-10T19:27:34;11.50;99.90
9668;DHT22;4872;48.316;10.650;2023-05-10T19:30:01;11.50;99.90
9668;DHT22;4872;48.316;10.650;2023-05-10T19:32:27;11.50;99.90
9668;DHT22;4872;48.316;10.650;2023-05-10T19:34:54;11.50;99.90
9668;DHT22;4872;48.316;10.650;2023-05-10T19:37:21;11.50;99.90
9668;DHT22;4872;48.316;10.650;2023-05-10T19:39:48;11.90;99.90
9668;DHT22;4872;48.316;10.650;2023-05-10T19:42:17;11.50;99.90
9668;DHT22;4872;48.316;10.650;2023-05-10T19:44:44;11.50;99.90
9668;DHT22;4872;48.316;10.650;2023-05-10T19:47:10;12.60;99.90
9668;DHT22;4872;48.316;10.650;2023-05-10T19:49:37;11.60;99.90
9668;DHT22;4872;48.316;10.650;2023-05-10T19:52:04;11.60;99.90